createdAt,value
2022-08-22T00:00:35.993Z,65.20
2022-08-22T00:02:44.327Z,60.80
2022-08-22T00:02:53.828Z,56.80
2022-08-22T00:03:34.168Z,65.80
2022-08-22T00:06:05.231Z,66.40
2022-08-22T00:14:01.599Z,66.20
2022-08-22T00:16:54.020Z,66.20
2022-08-22T00:19:47.445Z,66.30
2022-08-22T00:22:30.412Z,66.10
2022-08-22T00:25:14.997Z,66.80
2022-08-22T00:28:15.754Z,66.60
2022-08-22T00:31:01.661Z,67.10
2022-08-22T00:33:41.841Z,66.90
2022-08-22T00:36:14.330Z,66.90
2022-08-22T00:38:50.190Z,67.90
2022-08-22T00:41:35.961Z,66.60
2022-08-22T00:44:09.921Z,67.10
2022-08-22T00:46:59.491Z,67.10
2022-08-22T00:49:42.329Z,67.60
2022-08-22T00:52:26.055Z,67.10
2022-08-22T00:55:11.690Z,67.40
2022-08-22T00:58:15.342Z,67.60
2022-08-22T01:01:10.147Z,67.10
2022-08-22T01:03:49.326Z,67.70
2022-08-22T01:06:28.052Z,67.60
2022-08-22T01:09:21.941Z,67.50
2022-08-22T01:12:04.636Z,67.80
2022-08-22T01:14:52.685Z,67.30
2022-08-22T01:17:54.019Z,67.80
2022-08-22T01:21:07.968Z,68.00
2022-08-22T01:23:56.514Z,68.10
2022-08-22T01:26:27.683Z,67.80
2022-08-22T01:29:04.891Z,67.90
2022-08-22T01:31:42.675Z,68.00
2022-08-22T01:34:28.795Z,67.90
2022-08-22T01:37:43.747Z,68.20
2022-08-22T01:40:33.130Z,68.50
2022-08-22T01:43:22.885Z,67.80
2022-08-22T01:46:39.688Z,68.20
2022-08-22T01:49:53.968Z,68.00
2022-08-22T01:52:45.642Z,68.50
2022-08-22T01:55:35.605Z,68.70
2022-08-22T01:58:20.209Z,69.00
2022-08-22T02:01:20.155Z,68.90
2022-08-22T02:04:10.073Z,69.40
2022-08-22T02:06:49.931Z,69.20
2022-08-22T02:09:45.296Z,68.90
2022-08-22T02:12:42.205Z,69.00
2022-08-22T02:15:22.961Z,68.60
2022-08-22T02:18:05.365Z,68.70
2022-08-22T02:21:04.322Z,69.10
2022-08-22T02:23:56.147Z,69.00
2022-08-22T02:26:39.830Z,68.70
2022-08-22T02:29:12.713Z,68.90
2022-08-22T02:31:45.080Z,69.10
2022-08-22T02:34:21.455Z,69.00
2022-08-22T02:37:04.069Z,69.20
2022-08-22T02:39:54.051Z,69.40
2022-08-22T02:43:05.662Z,69.60
2022-08-22T02:45:51.070Z,69.90
2022-08-22T02:48:32.614Z,69.70
2022-08-22T02:51:07.130Z,69.90
2022-08-22T02:53:49.092Z,70.30
2022-08-22T02:56:40.478Z,69.90
2022-08-22T02:59:32.694Z,69.80
2022-08-22T03:02:27.637Z,70.40
2022-08-22T03:05:00.773Z,70.60
2022-08-22T03:07:39.335Z,69.90
2022-08-22T03:10:11.066Z,70.60
2022-08-22T03:12:45.671Z,70.40
2022-08-22T03:15:20.903Z,70.50
2022-08-22T03:18:07.677Z,70.70
2022-08-22T03:21:04.554Z,71.30
2022-08-22T03:23:43.494Z,71.50
2022-08-22T03:26:11.414Z,71.10
2022-08-22T03:29:03.279Z,70.80
2022-08-22T03:32:24.739Z,71.50
2022-08-22T03:35:34.326Z,71.70
2022-08-22T03:38:35.527Z,71.60
2022-08-22T03:41:40.650Z,71.60
2022-08-22T03:44:35.886Z,71.10
2022-08-22T03:47:18.434Z,71.00
2022-08-22T03:50:19.928Z,71.50
2022-08-22T03:53:57.620Z,71.20
2022-08-22T03:57:03.783Z,71.40
2022-08-22T04:04:04.128Z,72.00
2022-08-22T04:06:56.636Z,72.10
2022-08-22T04:10:29.153Z,71.90
2022-08-22T04:13:12.825Z,72.40
2022-08-22T04:16:08.440Z,72.50
2022-08-22T04:19:30.714Z,72.60
2022-08-22T04:22:19.051Z,73.10
2022-08-22T04:25:08.597Z,73.00
2022-08-22T04:27:53.393Z,73.00
2022-08-22T04:30:58.789Z,72.90
2022-08-22T04:34:29.886Z,73.30
2022-08-22T04:37:20.372Z,73.80
2022-08-22T04:40:08.515Z,73.30
2022-08-22T04:43:13.548Z,74.50
2022-08-22T04:45:53.517Z,74.00
2022-08-22T04:48:25.910Z,73.50
2022-08-22T04:52:07.739Z,73.80
2022-08-22T04:54:56.919Z,74.10
2022-08-22T04:57:33.164Z,73.90
2022-08-22T05:00:08.098Z,73.40
2022-08-22T05:02:37.884Z,73.80
2022-08-22T05:05:14.433Z,73.80
2022-08-22T05:07:50.742Z,73.70
2022-08-22T05:10:36.104Z,73.80
2022-08-22T05:13:47.032Z,73.40
2022-08-22T05:16:19.123Z,74.10
2022-08-22T05:18:49.442Z,74.10
2022-08-22T05:21:18.090Z,74.00
2022-08-22T05:23:55.332Z,74.80
2022-08-22T05:26:22.839Z,74.30
2022-08-22T05:29:00.775Z,74.00
2022-08-22T05:31:32.431Z,73.90
2022-08-22T05:34:04.939Z,74.00
2022-08-22T05:36:40.433Z,73.80
2022-08-22T05:39:09.290Z,73.80
2022-08-22T05:41:41.750Z,73.70
2022-08-22T05:44:21.248Z,73.40
2022-08-22T05:47:02.776Z,73.30
2022-08-22T05:49:35.024Z,73.30
2022-08-22T06:22:49.650Z,72.80
2022-08-22T07:17:58.513Z,64.90
2022-08-22T07:20:28.122Z,63.80
2022-08-22T07:23:04.642Z,63.70
2022-08-22T07:25:32.000Z,63.30
2022-08-22T07:28:36.629Z,62.90
2022-08-22T07:31:25.883Z,61.10
2022-08-22T07:33:58.036Z,60.60
2022-08-22T07:36:48.210Z,60.60
2022-08-22T07:39:21.474Z,59.90
2022-08-22T07:42:11.626Z,58.10
2022-08-22T07:45:07.415Z,55.90
2022-08-22T07:47:40.457Z,54.50
2022-08-22T07:50:08.485Z,55.60
2022-08-22T07:52:43.793Z,54.80
2022-08-22T07:55:20.388Z,53.40
2022-08-22T07:57:49.908Z,53.60
2022-08-22T08:00:29.847Z,52.60
2022-08-22T08:03:05.838Z,52.70
2022-08-22T08:05:36.483Z,52.10
2022-08-22T08:08:50.271Z,52.40
2022-08-22T08:11:17.487Z,51.40
2022-08-22T08:13:46.219Z,52.60
2022-08-22T08:16:19.946Z,51.30
2022-08-22T08:18:52.753Z,51.10
2022-08-22T08:21:37.156Z,51.10
2022-08-22T08:24:05.959Z,50.40
2022-08-22T08:27:30.895Z,51.50
2022-08-22T08:30:03.986Z,49.10
2022-08-22T08:32:44.403Z,50.20
2022-08-22T08:35:23.359Z,49.00
2022-08-22T08:38:08.817Z,47.50
2022-08-22T08:40:57.870Z,47.70
2022-08-22T08:43:36.540Z,48.30
2022-08-22T08:46:14.383Z,49.10
2022-08-22T08:50:13.875Z,49.60
2022-08-22T08:53:31.302Z,48.70
2022-08-22T08:56:19.453Z,49.60
2022-08-22T08:59:26.808Z,49.30
2022-08-22T09:02:36.844Z,48.00
2022-08-22T09:05:32.020Z,48.00
2022-08-22T09:08:25.034Z,47.20
2022-08-22T09:11:52.149Z,45.20
2022-08-22T09:14:53.386Z,46.00
2022-08-22T09:17:58.067Z,45.80
2022-08-22T09:20:40.457Z,46.40
2022-08-22T09:23:37.122Z,47.70
2022-08-22T09:26:36.126Z,47.40
2022-08-22T09:29:54.654Z,46.80
2022-08-22T09:33:11.702Z,45.80
2022-08-22T09:35:54.318Z,46.00
2022-08-22T09:38:40.894Z,46.60
2022-08-22T09:41:15.141Z,47.50
2022-08-22T09:44:03.104Z,46.90
2022-08-22T09:46:59.130Z,47.10
2022-08-22T09:49:53.508Z,45.00
2022-08-22T09:52:50.875Z,44.40
2022-08-22T09:55:38.206Z,43.20
2022-08-22T09:58:40.829Z,45.60
2022-08-22T10:01:32.938Z,44.60
2022-08-22T10:04:19.471Z,44.10
2022-08-22T10:07:12.168Z,43.10
2022-08-22T10:09:59.318Z,43.90
2022-08-22T10:12:36.025Z,43.70
2022-08-22T10:15:08.598Z,41.90
2022-08-22T10:17:42.241Z,43.70
2022-08-22T10:21:08.587Z,43.00
2022-08-22T10:23:54.861Z,43.50
2022-08-22T10:26:38.567Z,43.40
2022-08-22T10:29:09.025Z,43.90
2022-08-22T10:31:59.599Z,44.00
2022-08-22T10:34:45.114Z,43.50
2022-08-22T10:37:31.521Z,43.40
2022-08-22T10:40:20.301Z,43.50
2022-08-22T10:42:59.575Z,42.50
2022-08-22T10:45:36.480Z,43.00
2022-08-22T10:48:10.697Z,43.70
2022-08-22T10:51:20.874Z,44.00
2022-08-22T10:54:13.920Z,45.20
2022-08-22T10:57:00.927Z,45.30
2022-08-22T10:59:36.716Z,44.90
2022-08-22T11:02:18.748Z,44.60
2022-08-22T11:05:59.063Z,44.30
2022-08-22T11:09:06.621Z,42.90
2022-08-22T11:11:59.893Z,42.10
2022-08-22T11:15:24.184Z,42.50
2022-08-22T11:18:20.939Z,41.00
2022-08-22T11:21:27.232Z,41.40
2022-08-22T11:24:54.031Z,41.80
2022-08-22T11:27:38.435Z,41.70
2022-08-22T11:30:20.532Z,41.90
2022-08-22T11:33:46.460Z,41.40
2022-08-22T11:43:50.595Z,42.70
2022-08-22T11:46:39.218Z,43.30
2022-08-22T11:49:28.269Z,43.20
2022-08-22T11:52:08.720Z,44.50
2022-08-22T11:54:36.181Z,44.30
2022-08-22T11:57:35.588Z,44.60
2022-08-22T12:00:49.793Z,45.60
2022-08-22T12:03:58.590Z,46.30
2022-08-22T12:06:44.247Z,47.50
2022-08-22T12:09:26.928Z,46.90
2022-08-22T12:12:22.409Z,46.10
2022-08-22T12:19:02.511Z,46.10
2022-08-22T12:21:54.913Z,45.90
2022-08-22T12:24:42.115Z,45.30
2022-08-22T12:27:36.822Z,45.30
2022-08-22T12:30:27.149Z,44.80
2022-08-22T12:33:03.487Z,45.40
2022-08-22T12:35:53.104Z,45.40
2022-08-22T12:38:39.683Z,45.70
2022-08-22T12:49:00.879Z,45.10
2022-08-22T12:52:04.281Z,44.70
2022-08-22T12:55:09.606Z,44.90
2022-08-22T12:57:55.972Z,44.50
2022-08-22T13:00:51.378Z,44.30
2022-08-22T13:03:43.672Z,42.50
2022-08-22T13:06:42.664Z,41.50
2022-08-22T13:09:39.878Z,41.50
2022-08-22T13:12:43.883Z,40.20
2022-08-22T13:15:31.744Z,39.60
2022-08-22T13:18:18.957Z,39.80
2022-08-22T13:20:50.180Z,39.80
2022-08-22T13:23:23.419Z,41.10
2022-08-22T13:26:11.072Z,41.50
2022-08-22T13:29:26.141Z,42.40
2022-08-22T13:32:00.580Z,43.70
2022-08-22T13:34:46.455Z,45.20
2022-08-22T13:37:16.410Z,45.50
2022-08-22T13:39:45.939Z,46.00
2022-08-22T13:42:29.782Z,46.20
2022-08-22T13:44:59.920Z,46.20
2022-08-22T13:47:31.789Z,45.90
2022-08-22T13:50:14.839Z,45.40
2022-08-22T13:52:52.220Z,45.00
2022-08-22T13:55:31.930Z,45.00
2022-08-22T13:58:22.451Z,45.10
2022-08-22T14:01:32.205Z,45.70
2022-08-22T14:04:28.705Z,46.10
2022-08-22T14:07:04.535Z,45.30
2022-08-22T14:09:39.871Z,45.00
2022-08-22T14:12:17.000Z,45.20
2022-08-22T14:14:49.269Z,45.10
2022-08-22T14:17:21.597Z,45.10
2022-08-22T14:20:14.533Z,45.60
2022-08-22T14:23:07.652Z,46.30
2022-08-22T14:25:37.814Z,46.50
2022-08-22T14:28:27.563Z,46.60
2022-08-22T14:31:13.266Z,46.60
2022-08-22T14:33:51.439Z,46.60
2022-08-22T14:36:43.951Z,46.90
2022-08-22T14:39:32.441Z,47.10
2022-08-22T14:42:33.640Z,47.00
2022-08-22T14:45:09.252Z,48.00
2022-08-22T14:47:55.631Z,47.30
2022-08-22T14:50:58.796Z,46.50
2022-08-22T14:53:31.928Z,45.80
2022-08-22T14:56:13.293Z,45.20
2022-08-22T14:58:58.654Z,44.30
2022-08-22T15:01:29.902Z,42.30
2022-08-22T15:04:05.279Z,42.50
2022-08-22T15:06:47.640Z,41.40
2022-08-22T15:09:34.339Z,41.80
2022-08-22T15:12:03.554Z,41.20
2022-08-22T15:14:45.130Z,42.90
2022-08-22T15:17:44.429Z,42.50
2022-08-22T15:20:35.667Z,43.30
2022-08-22T15:23:10.173Z,43.70
2022-08-22T15:25:41.779Z,44.50
2022-08-22T15:28:20.425Z,44.80
2022-08-22T15:30:49.176Z,45.20
2022-08-22T15:33:25.914Z,45.20
2022-08-22T15:36:12.155Z,45.40
2022-08-22T15:38:48.048Z,45.20
2022-08-22T15:41:36.703Z,45.50
2022-08-22T15:44:32.207Z,45.00
2022-08-22T15:47:25.560Z,45.00
2022-08-22T15:50:01.137Z,44.10
2022-08-22T15:52:32.909Z,43.40
2022-08-22T15:55:20.772Z,43.00
2022-08-22T15:58:04.870Z,42.90
2022-08-22T16:01:20.064Z,42.90
2022-08-22T16:04:08.884Z,42.40
2022-08-22T16:07:05.454Z,42.10
2022-08-22T16:09:45.153Z,41.50
2022-08-22T16:12:28.477Z,41.80
2022-08-22T16:14:56.281Z,41.80
2022-08-22T16:17:29.582Z,41.20
2022-08-22T16:20:10.013Z,40.40
2022-08-22T16:22:59.315Z,40.70
2022-08-22T16:25:45.406Z,41.70
2022-08-22T16:28:59.159Z,42.00
2022-08-22T16:32:02.328Z,42.60
2022-08-22T16:34:42.485Z,43.30
2022-08-22T16:37:14.807Z,43.40
2022-08-22T16:40:01.993Z,43.30
2022-08-22T16:42:35.278Z,43.30
2022-08-22T16:45:14.666Z,43.00
2022-08-22T16:47:43.767Z,43.60
2022-08-22T16:50:26.105Z,44.00
2022-08-22T16:53:10.650Z,44.30
2022-08-22T16:55:49.561Z,44.80
2022-08-22T16:59:22.081Z,44.70
2022-08-22T17:02:37.459Z,45.50
2022-08-22T17:05:30.094Z,46.10
2022-08-22T17:08:22.665Z,46.50
2022-08-22T17:10:53.236Z,47.40
2022-08-22T17:13:36.745Z,49.70
2022-08-22T17:16:29.303Z,51.30
2022-08-22T17:19:26.080Z,50.20
2022-08-22T17:22:30.444Z,50.80
2022-08-22T17:25:28.390Z,51.10
2022-08-22T17:28:23.664Z,50.60
2022-08-22T17:31:00.073Z,51.60
2022-08-22T17:34:01.173Z,50.30
2022-08-22T17:37:11.487Z,50.50
2022-08-22T17:39:49.977Z,50.50
2022-08-22T17:42:36.608Z,50.00
2022-08-22T17:45:52.292Z,50.70
2022-08-22T17:48:56.122Z,51.20
2022-08-22T17:51:33.914Z,50.90
2022-08-22T17:54:29.698Z,51.20
2022-08-22T17:57:05.850Z,53.10
2022-08-22T17:59:47.432Z,52.70
2022-08-22T18:02:28.034Z,53.00
2022-08-22T18:05:19.664Z,52.30
2022-08-22T18:07:50.435Z,52.30
2022-08-22T18:10:18.153Z,52.30
2022-08-22T18:12:56.697Z,52.30
2022-08-22T18:15:41.476Z,52.20
2022-08-22T18:18:13.556Z,52.90
2022-08-22T18:21:04.323Z,53.00
2022-08-22T18:24:06.926Z,53.80
2022-08-22T18:26:45.853Z,54.00
2022-08-22T18:29:27.431Z,54.10
2022-08-22T18:32:04.647Z,55.00
2022-08-22T18:34:34.036Z,54.10
2022-08-22T18:37:17.526Z,54.70
2022-08-22T18:40:16.288Z,55.00
2022-08-22T18:43:06.026Z,55.90
2022-08-22T18:45:48.544Z,55.90
2022-08-22T18:48:29.427Z,56.50
2022-08-22T18:51:26.289Z,57.00
2022-08-22T18:54:06.991Z,58.10
2022-08-22T18:56:45.209Z,58.80
2022-08-22T18:59:40.397Z,59.00
2022-08-22T19:02:55.606Z,61.10
2022-08-22T19:05:38.709Z,62.70
2022-08-22T19:08:15.909Z,63.80
2022-08-22T19:11:08.354Z,64.90
2022-08-22T19:14:03.239Z,66.70
2022-08-22T19:16:38.569Z,68.70
2022-08-22T19:19:59.928Z,67.90
2022-08-22T19:22:36.772Z,68.40
2022-08-22T19:25:27.215Z,69.00
2022-08-22T19:28:06.642Z,69.50
2022-08-22T19:30:46.905Z,69.10
2022-08-22T19:33:19.777Z,71.00
2022-08-22T19:35:58.404Z,69.50
2022-08-22T19:38:52.018Z,69.70
2022-08-22T19:41:37.911Z,72.00
2022-08-22T19:44:08.990Z,72.30
2022-08-22T19:46:38.054Z,71.20
2022-08-22T19:49:05.696Z,71.40
2022-08-22T19:51:33.068Z,71.30
2022-08-22T19:54:21.289Z,71.60
2022-08-22T19:57:03.721Z,72.40
2022-08-22T20:00:00.370Z,71.90
2022-08-22T20:02:37.735Z,73.20
2022-08-22T20:05:29.019Z,73.30
2022-08-22T20:08:11.509Z,74.10
2022-08-22T20:11:04.385Z,73.80
2022-08-22T20:13:33.263Z,74.20
2022-08-22T20:16:17.526Z,73.10
2022-08-22T20:19:07.997Z,74.10
2022-08-22T20:21:45.888Z,74.80
2022-08-22T20:24:39.996Z,75.00
2022-08-22T20:27:18.034Z,76.70
2022-08-22T20:29:54.733Z,77.40
2022-08-22T20:32:23.498Z,77.30
2022-08-22T20:34:54.338Z,78.30
2022-08-22T20:37:40.407Z,77.20
2022-08-22T20:40:55.285Z,78.20
2022-08-22T20:43:45.528Z,78.60
2022-08-22T20:46:35.416Z,78.40
2022-08-22T20:49:05.402Z,78.70
2022-08-22T20:51:33.810Z,79.80
2022-08-22T20:54:15.261Z,80.20
2022-08-22T20:56:52.894Z,80.60
2022-08-22T20:59:37.925Z,80.20
2022-08-22T21:02:07.053Z,80.50
2022-08-22T21:04:42.786Z,80.00
2022-08-22T21:07:10.415Z,79.70
2022-08-22T21:09:56.275Z,80.20
2022-08-22T21:12:27.215Z,79.90
2022-08-22T21:14:56.710Z,79.80
2022-08-22T21:17:34.240Z,79.80
2022-08-22T21:20:19.764Z,79.60
2022-08-22T21:22:47.199Z,80.20
2022-08-22T21:25:14.323Z,80.40
2022-08-22T21:27:41.507Z,80.40
2022-08-22T21:30:09.519Z,79.90
2022-08-22T21:32:46.287Z,80.30
2022-08-22T21:35:31.703Z,79.70
2022-08-22T21:37:59.419Z,80.40
2022-08-22T21:40:35.852Z,80.20
2022-08-22T21:43:09.064Z,80.40
2022-08-22T21:45:44.335Z,80.10
2022-08-22T21:48:34.203Z,81.10
2022-08-22T21:51:20.847Z,81.20
2022-08-22T21:53:47.952Z,80.70
2022-08-22T21:56:29.510Z,80.40
2022-08-22T21:59:25.998Z,80.40
2022-08-22T22:02:39.775Z,81.30
2022-08-22T22:05:25.074Z,80.80
2022-08-22T22:07:52.404Z,80.60
2022-08-22T22:10:20.440Z,80.70
2022-08-22T22:12:48.455Z,80.40
2022-08-22T22:15:19.712Z,80.20
2022-08-22T22:17:46.911Z,80.00
2022-08-22T22:20:15.350Z,80.00
2022-08-22T22:22:46.151Z,81.00
2022-08-22T22:25:41.225Z,80.10
2022-08-22T22:28:11.269Z,80.10
2022-08-22T22:30:38.366Z,80.30
2022-08-22T22:33:05.717Z,80.10
2022-08-22T22:35:33.087Z,80.10
2022-08-22T22:38:00.437Z,80.30
2022-08-22T22:40:27.807Z,80.30
2022-08-22T22:42:55.423Z,80.00
2022-08-22T22:45:22.605Z,80.30
2022-08-22T22:47:50.002Z,80.40
2022-08-22T22:50:17.883Z,80.40
2022-08-22T22:52:45.343Z,80.10
2022-08-22T22:55:13.051Z,79.80
2022-08-22T22:57:59.224Z,80.30
2022-08-22T23:00:30.818Z,81.30
2022-08-22T23:03:00.816Z,80.20
2022-08-22T23:05:29.330Z,80.60
2022-08-22T23:07:56.977Z,81.10
2022-08-22T23:10:26.660Z,81.20
2022-08-22T23:12:53.959Z,81.20
2022-08-22T23:15:21.726Z,81.50
2022-08-22T23:17:51.774Z,82.10
2022-08-22T23:20:19.285Z,83.00
2022-08-22T23:22:46.559Z,82.40
2022-08-22T23:25:13.801Z,83.20
2022-08-22T23:27:41.057Z,82.60
2022-08-22T23:30:09.281Z,83.30
2022-08-22T23:32:37.298Z,83.30
2022-08-22T23:35:04.793Z,83.70
2022-08-22T23:37:32.006Z,84.00
2022-08-22T23:39:59.297Z,84.00
2022-08-22T23:42:29.634Z,84.00
2022-08-22T23:44:56.723Z,83.90
2022-08-22T23:47:23.968Z,83.80
2022-08-22T23:49:51.767Z,84.30
2022-08-22T23:52:19.207Z,83.90
2022-08-22T23:54:46.661Z,83.30
2022-08-22T23:57:14.978Z,84.30
2022-08-22T23:59:46.287Z,83.40
